Time;durP1;ratioP1;P1;durP2;ratioP2;P2;SDS_P1;SDS_P2;PMS_P1;PMS_P2;Temp;Humidity;BMP_temperature;BMP_pressure;BME280_temperature;BME280_humidity;BME280_pressure;Samples;Min_cycle;Max_cycle;Signal;HPM_P1;HPM_P2
2022/04/22 00:00:40;;;;;;;18.88;11.05;;;5.00;99.90;;;;;;5062962;28;20523;-86
2022/04/22 00:03:07;;;;;;;20.58;10.45;;;4.90;99.90;;;;;;5071154;28;20032;-86
2022/04/22 00:05:34;;;;;;;19.40;10.57;;;4.90;99.90;;;;;;5060119;28;20051;-86
2022/04/22 00:08:00;;;;;;;19.88;10.85;;;4.80;99.90;;;;;;5034254;28;20102;-87
2022/04/22 00:10:26;;;;;;;17.30;11.27;;;4.90;99.90;;;;;;5048222;28;20115;-87
2022/04/22 00:12:52;;;;;;;20.08;11.00;;;4.80;99.90;;;;;;5050521;28;20085;-86
2022/04/22 00:15:20;;;;;;;24.13;12.85;;;4.80;99.90;;;;;;5054315;28;20025;-86
2022/04/22 00:17:47;;;;;;;22.40;13.75;;;4.80;99.90;;;;;;5045740;28;20652;-85
2022/04/22 00:20:13;;;;;;;22.25;12.55;;;4.80;99.90;;;;;;5046061;28;20032;-85
2022/04/22 00:22:43;;;;;;;19.85;10.85;;;4.70;99.90;;;;;;5071623;28;20025;-86
2022/04/22 00:25:10;;;;;;;21.40;11.13;;;4.70;99.90;;;;;;5063855;28;20028;-86
2022/04/22 00:27:37;;;;;;;19.30;10.75;;;4.60;99.90;;;;;;5061219;28;20093;-87
2022/04/22 00:30:11;;;;;;;23.63;11.75;;;4.60;99.90;;;;;;5057454;28;20135;-87
2022/04/22 00:32:37;;;;;;;19.80;11.35;;;4.60;99.90;;;;;;5057909;28;20079;-86
2022/04/22 00:35:04;;;;;;;20.02;11.13;;;4.60;99.90;;;;;;5070199;28;20057;-87
2022/04/22 00:37:30;;;;;;;20.83;10.00;;;4.70;99.90;;;;;;5073031;28;20033;-86
2022/04/22 00:39:55;;;;;;;24.48;11.27;;;4.70;99.90;;;;;;5051852;28;20107;-86
2022/04/22 00:42:21;;;;;;;19.10;12.18;;;4.70;99.90;;;;;;5048737;28;20033;-86
2022/04/22 00:44:47;;;;;;;24.25;12.15;;;4.60;99.90;;;;;;5031263;28;20029;-86
2022/04/22 00:47:12;;;;;;;16.45;9.05;;;4.60;99.90;;;;;;5049000;28;20035;-85
2022/04/22 00:49:38;;;;;;;19.98;11.32;;;4.60;99.90;;;;;;5033616;28;20036;-86
2022/04/22 00:52:05;;;;;;;21.05;11.75;;;4.50;99.90;;;;;;5054319;28;20217;-85
2022/04/22 00:54:32;;;;;;;19.63;10.45;;;4.40;99.90;;;;;;5063094;28;20177;-85
2022/04/22 00:56:58;;;;;;;19.27;10.65;;;4.30;99.90;;;;;;5057410;28;20606;-86
2022/04/22 00:59:24;;;;;;;28.20;11.70;;;4.30;99.90;;;;;;5063532;28;20480;-85
2022/04/22 01:01:50;;;;;;;20.98;11.70;;;4.20;99.90;;;;;;5040950;28;20499;-87
2022/04/22 01:09:51;;;;;;;18.35;8.95;;;4.20;99.90;;;;;;5058297;28;20091;-86
2022/04/22 01:12:17;;;;;;;21.50;11.00;;;4.20;99.90;;;;;;5049313;28;20031;-86
2022/04/22 01:14:44;;;;;;;24.13;11.40;;;4.20;99.90;;;;;;5082304;28;20476;-86
2022/04/22 01:17:10;;;;;;;19.33;11.80;;;4.30;99.90;;;;;;5061579;28;20074;-86
2022/04/22 01:19:35;;;;;;;24.25;12.52;;;4.20;99.90;;;;;;5023302;28;20061;-86
2022/04/22 01:22:01;;;;;;;25.13;11.50;;;4.10;99.90;;;;;;5061905;28;20032;-86
2022/04/22 01:24:28;;;;;;;23.17;11.43;;;4.10;99.90;;;;;;5055097;28;20447;-86
2022/04/22 01:26:57;;;;;;;24.73;12.35;;;4.20;99.90;;;;;;5073176;28;20028;-86
2022/04/22 01:29:23;;;;;;;26.85;13.10;;;4.10;99.90;;;;;;5059225;28;20517;-88
2022/04/22 01:31:49;;;;;;;24.02;12.60;;;4.20;99.90;;;;;;5086927;28;20045;-86
2022/04/22 01:34:15;;;;;;;25.65;12.48;;;4.10;99.90;;;;;;5089261;28;20028;-87
2022/04/22 01:36:41;;;;;;;22.45;12.70;;;4.10;99.90;;;;;;5055381;28;20036;-86
2022/04/22 01:39:07;;;;;;;20.50;11.27;;;4.00;99.90;;;;;;5086746;28;20025;-86
2022/04/22 01:41:32;;;;;;;23.98;12.90;;;4.00;99.90;;;;;;5063493;28;20059;-86
2022/04/22 01:43:58;;;;;;;20.92;11.30;;;4.00;99.90;;;;;;5077254;28;20021;-86
2022/04/22 01:46:24;;;;;;;22.25;11.68;;;3.80;99.90;;;;;;5067620;28;20483;-87
2022/04/22 01:48:50;;;;;;;22.17;11.00;;;3.90;99.90;;;;;;5049882;28;20144;-88
2022/04/22 01:51:15;;;;;;;22.85;11.20;;;4.00;99.90;;;;;;5058158;28;20424;-88
2022/04/22 01:53:41;;;;;;;23.25;12.70;;;4.00;99.90;;;;;;5062219;28;20034;-86
2022/04/22 01:56:07;;;;;;;26.05;12.48;;;4.00;99.90;;;;;;5042886;28;20030;-87
2022/04/22 01:58:33;;;;;;;22.90;12.68;;;4.00;99.90;;;;;;5043831;28;20020;-86
2022/04/22 02:00:58;;;;;;;22.10;12.90;;;4.00;99.90;;;;;;5044992;28;20033;-86
2022/04/22 02:03:24;;;;;;;28.20;14.10;;;4.00;99.90;;;;;;5042130;28;20040;-87
2022/04/22 02:05:50;;;;;;;19.52;10.95;;;3.90;99.90;;;;;;5032769;28;20552;-87
2022/04/22 02:08:16;;;;;;;26.48;14.18;;;3.90;99.90;;;;;;5034451;28;20040;-87
2022/04/22 02:10:42;;;;;;;21.77;11.50;;;3.90;99.90;;;;;;5037283;28;20029;-86
2022/04/22 02:13:08;;;;;;;24.20;12.93;;;3.90;99.90;;;;;;5034683;28;20037;-87
2022/04/22 02:15:34;;;;;;;29.42;14.88;;;4.00;99.90;;;;;;5050474;28;20466;-86
2022/04/22 02:18:00;;;;;;;29.77;15.45;;;4.00;99.90;;;;;;5011905;28;20061;-88
2022/04/22 02:20:26;;;;;;;26.05;12.80;;;4.00;99.90;;;;;;5054687;28;20064;-86
2022/04/22 02:22:52;;;;;;;27.48;14.02;;;3.90;99.90;;;;;;5025694;28;20025;-88
2022/04/22 02:25:17;;;;;;;27.52;14.40;;;3.80;99.90;;;;;;5039848;28;20071;-87
2022/04/22 02:30:28;;;;;;;28.85;13.38;;;3.70;99.90;;;;;;5040409;28;20044;-87
2022/04/22 02:32:54;;;;;;;28.73;16.40;;;3.70;99.90;;;;;;5059809;28;20049;-87
2022/04/22 02:35:21;;;;;;;23.52;12.02;;;3.60;99.90;;;;;;5039662;28;20037;-88
2022/04/22 02:37:48;;;;;;;25.65;12.98;;;3.60;99.90;;;;;;5038117;28;20040;-87
2022/04/22 02:45:43;;;;;;;29.35;13.40;;;3.50;99.90;;;;;;5037353;28;20195;-86
2022/04/22 02:48:09;;;;;;;25.33;13.02;;;3.50;99.90;;;;;;5029444;28;20555;-87
2022/04/22 02:50:34;;;;;;;28.42;14.73;;;3.40;99.90;;;;;;5014290;28;20025;-86
2022/04/22 02:53:01;;;;;;;27.55;14.93;;;3.40;99.90;;;;;;5034578;28;20041;-86
2022/04/22 02:55:26;;;;;;;29.85;16.23;;;3.40;99.90;;;;;;5026490;28;20033;-85
2022/04/22 02:57:52;;;;;;;29.42;14.40;;;3.30;99.90;;;;;;5039478;28;20107;-88
2022/04/22 03:00:18;;;;;;;25.85;14.63;;;3.40;99.90;;;;;;5042617;28;20040;-86
2022/04/22 03:02:44;;;;;;;26.55;13.30;;;3.30;99.90;;;;;;5036323;28;20116;-88
2022/04/22 03:05:10;;;;;;;28.45;16.08;;;3.30;99.90;;;;;;5043756;28;20802;-87
2022/04/22 03:07:37;;;;;;;30.65;15.02;;;3.30;99.90;;;;;;5033001;28;20017;-86
2022/04/22 03:10:04;;;;;;;29.60;14.82;;;3.20;99.90;;;;;;5037073;28;20029;-87
2022/04/22 03:12:30;;;;;;;27.30;14.32;;;3.10;99.90;;;;;;5037130;28;20555;-87
2022/04/22 03:14:56;;;;;;;30.65;17.33;;;3.10;99.90;;;;;;5014321;28;20109;-86
2022/04/22 03:17:23;;;;;;;29.45;14.68;;;3.10;99.90;;;;;;5020540;28;20082;-87
2022/04/22 03:19:50;;;;;;;28.95;15.32;;;3.10;99.90;;;;;;5024600;28;20036;-87
2022/04/22 03:22:16;;;;;;;29.10;15.77;;;3.10;99.90;;;;;;5030767;28;20061;-86
2022/04/22 03:24:42;;;;;;;26.27;14.52;;;3.20;99.90;;;;;;5041228;28;20108;-87
2022/04/22 03:27:08;;;;;;;35.00;13.98;;;3.10;99.90;;;;;;5042451;28;20488;-87
2022/04/22 03:29:35;;;;;;;27.55;14.48;;;3.10;99.90;;;;;;5057806;28;20025;-86
2022/04/22 03:32:01;;;;;;;29.88;18.45;;;3.00;99.90;;;;;;5042725;28;20097;-86
2022/04/22 03:34:27;;;;;;;28.23;14.13;;;3.00;99.90;;;;;;5040894;28;20032;-87
2022/04/22 03:36:53;;;;;;;30.08;16.20;;;3.00;99.90;;;;;;5030483;28;20034;-87
2022/04/22 03:39:18;;;;;;;30.83;16.55;;;3.00;99.90;;;;;;5037120;28;20029;-88
2022/04/22 03:41:44;;;;;;;29.75;15.65;;;3.00;99.90;;;;;;5039570;28;20404;-86
2022/04/22 03:44:10;;;;;;;30.65;15.70;;;2.90;99.90;;;;;;5013967;28;20394;-87
2022/04/22 03:46:36;;;;;;;33.72;18.35;;;3.00;99.90;;;;;;5053644;28;20037;-87
2022/04/22 03:49:04;;;;;;;33.22;17.65;;;3.00;99.90;;;;;;5037652;28;20037;-87
2022/04/22 03:51:29;;;;;;;28.13;16.15;;;2.90;99.90;;;;;;5042852;28;20033;-88
2022/04/22 03:53:55;;;;;;;37.33;16.83;;;2.80;99.90;;;;;;5025489;28;20078;-86
2022/04/22 03:59:05;;;;;;;32.00;15.57;;;2.90;99.90;;;;;;5035822;28;20042;-87
2022/04/22 04:01:32;;;;;;;36.22;16.38;;;2.90;99.90;;;;;;5039935;28;20045;-87
2022/04/22 04:03:57;;;;;;;32.92;15.40;;;2.80;99.90;;;;;;5034198;28;20032;-86
2022/04/22 04:06:24;;;;;;;30.23;16.50;;;2.80;99.90;;;;;;5031523;28;20030;-88
2022/04/22 04:17:04;;;;;;;34.40;16.88;;;2.90;99.90;;;;;;5034100;28;20036;-86
2022/04/22 04:24:58;;;;;;;38.42;19.45;;;2.90;99.90;;;;;;5035241;28;20040;-86
2022/04/22 04:27:23;;;;;;;38.70;19.98;;;2.90;99.90;;;;;;5038859;28;20404;-87
2022/04/22 04:29:49;;;;;;;34.30;16.67;;;2.90;99.90;;;;;;5040332;28;20105;-86
2022/04/22 04:32:17;;;;;;;39.85;17.85;;;2.90;99.90;;;;;;5017843;28;20048;-87
2022/04/22 04:34:44;;;;;;;39.33;18.45;;;2.90;99.90;;;;;;5036412;28;20029;-86
2022/04/22 04:37:10;;;;;;;37.50;20.15;;;2.90;99.90;;;;;;5036310;28;20036;-86
2022/04/22 04:39:36;;;;;;;40.80;19.13;;;2.90;99.90;;;;;;5036930;28;20112;-86
2022/04/22 04:42:02;;;;;;;34.85;18.73;;;2.80;99.90;;;;;;5035871;28;20104;-85
2022/04/22 04:44:28;;;;;;;32.97;16.90;;;2.90;99.90;;;;;;5031970;28;20044;-87
2022/04/22 04:46:54;;;;;;;36.78;17.63;;;3.00;99.90;;;;;;5033368;28;20086;-87
2022/04/22 04:49:21;;;;;;;34.03;17.65;;;3.00;99.90;;;;;;5027120;28;20524;-87
2022/04/22 04:51:46;;;;;;;35.97;17.25;;;3.10;99.90;;;;;;5025789;28;20063;-85
2022/04/22 04:54:12;;;;;;;39.60;21.40;;;3.10;99.90;;;;;;5041225;28;20033;-86
2022/04/22 04:56:38;;;;;;;39.85;19.52;;;3.20;99.90;;;;;;5032145;28;20042;-86
2022/04/22 04:59:03;;;;;;;34.47;16.45;;;3.20;99.90;;;;;;5026349;28;20555;-86
2022/04/22 05:01:29;;;;;;;32.22;16.48;;;3.30;99.90;;;;;;5041146;28;20047;-87
2022/04/22 05:03:55;;;;;;;36.00;16.83;;;3.40;99.90;;;;;;5055896;28;20028;-88
2022/04/22 05:06:20;;;;;;;40.30;18.52;;;3.40;99.90;;;;;;5056507;28;20115;-86
2022/04/22 05:08:46;;;;;;;40.60;19.45;;;3.30;99.90;;;;;;5052813;28;20542;-86
2022/04/22 05:11:12;;;;;;;36.53;20.65;;;3.30;99.90;;;;;;5034226;28;20139;-87
2022/04/22 05:13:38;;;;;;;42.70;19.48;;;3.30;99.90;;;;;;5053395;28;20078;-85
2022/04/22 05:16:04;;;;;;;39.40;20.48;;;3.50;99.90;;;;;;5053895;28;20029;-85
2022/04/22 05:18:30;;;;;;;36.00;18.05;;;3.50;99.90;;;;;;5058027;28;20024;-86
2022/04/22 05:20:56;;;;;;;39.15;21.15;;;3.50;99.90;;;;;;5064049;28;20529;-86
2022/04/22 05:23:22;;;;;;;37.92;19.95;;;3.70;99.90;;;;;;5058436;28;20548;-86
2022/04/22 05:25:48;;;;;;;42.17;20.95;;;3.70;99.90;;;;;;5061942;28;20112;-86
2022/04/22 05:28:14;;;;;;;37.95;18.95;;;3.70;99.90;;;;;;5077518;28;20024;-86
2022/04/22 05:33:24;;;;;;;37.78;17.45;;;3.80;99.90;;;;;;5037483;28;20852;-85
2022/04/22 05:35:49;;;;;;;40.97;20.40;;;3.90;99.90;;;;;;5035313;28;20034;-87
2022/04/22 05:38:15;;;;;;;45.38;23.38;;;4.00;99.90;;;;;;5035660;28;20018;-86
2022/04/22 05:40:44;;;;;;;45.67;22.77;;;4.00;99.90;;;;;;5031514;28;20032;-86
2022/04/22 05:43:10;;;;;;;37.60;17.08;;;4.10;99.90;;;;;;5029045;28;20044;-86
2022/04/22 05:45:37;;;;;;;41.25;21.23;;;4.20;99.90;;;;;;5023147;28;20052;-86
2022/04/22 05:48:02;;;;;;;43.60;20.92;;;4.20;99.90;;;;;;5064810;28;20394;-86
2022/04/22 05:50:28;;;;;;;43.05;21.63;;;4.30;99.90;;;;;;5035716;28;20032;-85
2022/04/22 05:52:55;;;;;;;45.42;20.45;;;4.30;99.90;;;;;;5035814;28;20037;-87
2022/04/22 05:55:23;;;;;;;43.90;21.23;;;4.30;99.90;;;;;;5077021;28;20038;-86
2022/04/22 05:57:50;;;;;;;39.08;19.77;;;4.30;99.90;;;;;;5039105;28;20041;-87
2022/04/22 06:00:20;;;;;;;44.30;21.75;;;4.50;99.90;;;;;;5021479;28;20041;-86
2022/04/22 06:02:46;;;;;;;42.78;19.63;;;4.60;99.90;;;;;;5034584;28;20031;-86
2022/04/22 06:05:14;;;;;;;49.22;22.13;;;4.50;99.90;;;;;;5033420;28;20038;-86
2022/04/22 06:07:41;;;;;;;40.28;20.35;;;4.60;99.90;;;;;;5031038;28;20026;-87
2022/04/22 06:12:52;;;;;;;41.55;19.98;;;4.50;99.90;;;;;;5060641;28;20059;-87
2022/04/22 06:15:18;;;;;;;42.08;21.30;;;4.60;99.90;;;;;;5038438;28;20033;-87
2022/04/22 06:17:44;;;;;;;40.47;20.85;;;4.60;99.90;;;;;;5021596;28;20080;-87
2022/04/22 06:20:10;;;;;;;47.38;21.50;;;4.60;99.90;;;;;;5023945;28;20566;-88
2022/04/22 06:22:36;;;;;;;48.60;24.40;;;4.80;99.90;;;;;;5037952;28;20025;-87
2022/04/22 06:25:02;;;;;;;41.70;20.02;;;5.10;99.90;;;;;;5022712;28;20036;-87
2022/04/22 06:27:34;;;;;;;41.65;22.55;;;5.30;99.90;;;;;;5038078;28;20025;-87
2022/04/22 06:30:04;;;;;;;47.20;23.58;;;5.60;99.90;;;;;;5038854;28;20029;-87
2022/04/22 06:32:30;;;;;;;44.67;23.17;;;5.70;99.90;;;;;;5040829;28;20102;-87
2022/04/22 06:34:56;;;;;;;47.15;22.02;;;5.80;99.90;;;;;;5057119;28;20037;-87
2022/04/22 06:37:23;;;;;;;38.95;22.17;;;6.00;99.90;;;;;;5058500;28;20549;-87
2022/04/22 06:48:03;;;;;;;45.35;22.65;;;6.40;99.90;;;;;;5057321;28;20032;-86
2022/04/22 06:50:30;;;;;;;40.88;20.05;;;6.50;99.90;;;;;;5054651;28;20056;-86
2022/04/22 06:52:55;;;;;;;45.45;22.17;;;6.80;99.90;;;;;;5046790;28;20140;-87
2022/04/22 06:55:21;;;;;;;38.28;20.13;;;7.10;99.90;;;;;;5062986;28;20136;-86
2022/04/22 06:57:49;;;;;;;41.10;21.75;;;7.50;99.90;;;;;;5053105;28;20036;-87
2022/04/22 07:00:15;;;;;;;46.40;24.15;;;7.40;99.90;;;;;;5028358;28;20072;-83
2022/04/22 07:02:41;;;;;;;39.10;21.55;;;7.70;99.90;;;;;;5047887;28;20032;-84
2022/04/22 07:05:09;;;;;;;36.72;19.60;;;7.90;99.90;;;;;;5028187;28;20026;-85
2022/04/22 07:07:35;;;;;;;39.15;20.83;;;8.20;99.90;;;;;;5042373;28;20456;-85
2022/04/22 07:10:00;;;;;;;35.40;18.67;;;8.40;99.90;;;;;;5039052;28;20037;-85
2022/04/22 07:12:27;;;;;;;38.17;20.67;;;8.40;99.90;;;;;;5057494;28;20696;-89
2022/04/22 07:15:04;;;;;;;37.88;21.70;;;8.60;99.90;;;;;;5041348;28;20036;-87
2022/04/22 07:17:31;;;;;;;34.70;18.30;;;8.40;99.90;;;;;;5040282;28;20033;-86
2022/04/22 07:19:57;;;;;;;35.90;20.58;;;8.10;99.90;;;;;;5050477;28;20656;-88
2022/04/22 07:22:23;;;;;;;38.08;18.55;;;8.20;99.90;;;;;;5067767;28;20032;-88
2022/04/22 07:24:49;;;;;;;41.78;21.33;;;8.30;99.90;;;;;;5052791;28;20028;-88
2022/04/22 07:27:16;;;;;;;39.13;20.42;;;8.40;99.90;;;;;;5048301;28;20028;-83
2022/04/22 07:29:42;;;;;;;39.60;21.65;;;8.30;99.90;;;;;;5056281;28;20204;-85
2022/04/22 07:32:08;;;;;;;35.97;19.95;;;8.40;99.90;;;;;;5051129;28;20511;-85
2022/04/22 07:34:34;;;;;;;36.65;20.05;;;8.50;99.90;;;;;;5042610;28;20469;-85
2022/04/22 07:37:00;;;;;;;39.17;20.73;;;8.40;99.90;;;;;;5061960;28;20119;-85
2022/04/22 07:39:26;;;;;;;36.55;20.50;;;8.60;99.90;;;;;;5035062;28;20033;-85
2022/04/22 07:41:56;;;;;;;37.55;20.25;;;8.60;99.90;;;;;;5048008;28;20128;-86
2022/04/22 07:47:10;;;;;;;37.42;19.45;;;8.70;99.90;;;;;;5048309;28;20344;-86
2022/04/22 07:49:35;;;;;;;40.50;20.88;;;8.70;99.90;;;;;;5052724;28;20074;-85
2022/04/22 07:52:01;;;;;;;36.08;20.25;;;8.70;99.90;;;;;;5055836;28;20029;-83
2022/04/22 07:54:27;;;;;;;36.03;22.58;;;8.50;99.90;;;;;;5039896;28;20356;-86
2022/04/22 07:56:53;;;;;;;36.45;20.85;;;8.60;99.90;;;;;;5052803;28;20106;-86
2022/04/22 07:59:19;;;;;;;34.30;16.88;;;8.70;99.90;;;;;;5053134;28;20033;-84
2022/04/22 08:01:45;;;;;;;35.40;20.15;;;8.80;99.90;;;;;;5059090;28;20044;-84
2022/04/22 08:04:10;;;;;;;35.85;20.30;;;9.00;99.90;;;;;;5051706;28;20037;-82
2022/04/22 08:06:37;;;;;;;35.60;18.98;;;9.20;99.10;;;;;;5054898;28;20041;-82
2022/04/22 08:09:03;;;;;;;37.78;21.40;;;9.30;99.30;;;;;;5035274;28;20032;-82
2022/04/22 08:11:28;;;;;;;38.45;22.05;;;9.50;98.60;;;;;;5042233;28;20222;-85
2022/04/22 08:13:55;;;;;;;39.05;21.30;;;9.50;98.50;;;;;;5031762;28;20048;-87
2022/04/22 08:16:21;;;;;;;37.60;21.85;;;9.50;98.10;;;;;;5040800;28;20116;-86
2022/04/22 08:18:46;;;;;;;37.53;21.92;;;9.40;99.10;;;;;;5053546;28;20136;-86
2022/04/22 08:21:12;;;;;;;34.50;20.48;;;9.70;97.70;;;;;;5055096;28;20024;-87
2022/04/22 08:23:39;;;;;;;40.38;20.00;;;9.90;97.00;;;;;;5077052;28;20441;-85
2022/04/22 08:26:05;;;;;;;37.50;20.65;;;10.20;96.40;;;;;;5039818;28;20814;-87
2022/04/22 08:28:30;;;;;;;35.63;22.08;;;10.40;96.40;;;;;;5054849;28;20029;-84
2022/04/22 08:30:56;;;;;;;29.70;18.63;;;10.60;95.80;;;;;;5054887;28;20060;-85
2022/04/22 08:33:21;;;;;;;36.20;19.98;;;10.40;96.50;;;;;;5034996;28;20148;-87
2022/04/22 08:35:47;;;;;;;35.40;20.08;;;10.70;96.60;;;;;;5068338;28;20029;-83
2022/04/22 08:38:13;;;;;;;32.33;19.67;;;10.70;94.80;;;;;;5054637;28;20021;-84
2022/04/22 08:40:39;;;;;;;32.30;19.20;;;10.90;94.60;;;;;;5034699;28;20495;-86
2022/04/22 08:43:06;;;;;;;32.53;18.33;;;10.80;94.60;;;;;;5057013;28;20508;-86
2022/04/22 08:45:33;;;;;;;34.42;19.33;;;10.70;94.80;;;;;;5047656;28;20523;-86
2022/04/22 08:50:47;;;;;;;35.33;19.70;;;11.00;93.80;;;;;;5052586;28;20567;-86
2022/04/22 08:53:21;;;;;;;32.28;19.83;;;11.30;92.80;;;;;;5050592;28;20029;-87
2022/04/22 08:55:50;;;;;;;34.97;20.50;;;11.50;92.30;;;;;;5046001;28;20024;-87
2022/04/22 08:58:17;;;;;;;34.30;20.38;;;11.70;91.70;;;;;;5060003;28;20029;-86
2022/04/22 09:00:44;;;;;;;36.20;22.60;;;11.50;92.00;;;;;;5043851;28;20051;-88
2022/04/22 09:03:10;;;;;;;34.80;21.67;;;12.10;95.30;;;;;;5046807;28;20035;-87
2022/04/22 09:05:36;;;;;;;34.47;20.63;;;11.80;92.20;;;;;;5050476;28;20029;-88
2022/04/22 09:08:05;;;;;;;32.50;20.23;;;12.10;92.60;;;;;;5026054;28;20056;-89
2022/04/22 09:10:32;;;;;;;33.95;20.13;;;11.80;92.20;;;;;;5050750;28;20020;-85
2022/04/22 09:12:58;;;;;;;37.38;20.75;;;11.30;93.40;;;;;;5039324;28;20040;-85
2022/04/22 09:15:27;;;;;;;30.77;18.60;;;11.50;92.40;;;;;;5037803;28;20541;-85
2022/04/22 09:18:00;;;;;;;39.83;21.52;;;11.50;93.00;;;;;;5043745;28;20027;-85
2022/04/22 09:20:31;;;;;;;33.08;20.17;;;11.40;92.00;;;;;;5062211;28;20025;-85
2022/04/22 09:22:57;;;;;;;33.08;20.08;;;11.10;93.90;;;;;;5059846;28;20041;-85
2022/04/22 09:25:25;;;;;;;36.92;20.45;;;11.40;93.40;;;;;;5057210;28;20060;-85
2022/04/22 09:27:51;;;;;;;37.00;20.85;;;11.50;92.70;;;;;;5063243;28;20034;-85
2022/04/22 09:30:17;;;;;;;38.60;20.67;;;11.80;92.80;;;;;;5061917;28;20035;-84
2022/04/22 09:32:44;;;;;;;33.65;20.45;;;11.70;91.80;;;;;;5057294;28;20570;-84
2022/04/22 09:35:19;;;;;;;34.15;20.27;;;12.20;91.30;;;;;;5058655;28;20033;-86
2022/04/22 09:43:47;;;;;;;30.88;19.70;;;12.50;90.40;;;;;;5053448;28;20062;-84
2022/04/22 09:46:24;;;;;;;28.00;17.85;;;12.90;89.20;;;;;;5048087;28;20025;-90
2022/04/22 09:48:54;;;;;;;29.13;17.27;;;12.80;86.70;;;;;;5055519;28;20052;-85
2022/04/22 09:51:27;;;;;;;28.75;18.23;;;13.10;83.60;;;;;;5060686;28;20028;-85
2022/04/22 09:54:03;;;;;;;37.20;21.38;;;13.30;84.10;;;;;;5080965;28;20040;-86
2022/04/22 09:56:32;;;;;;;28.48;17.77;;;13.80;90.00;;;;;;5094383;28;20128;-86
2022/04/22 09:58:57;;;;;;;26.83;17.45;;;14.50;80.00;;;;;;5072501;28;20033;-85
2022/04/22 10:01:24;;;;;;;28.13;17.20;;;14.40;81.40;;;;;;5055338;28;20098;-85
2022/04/22 10:03:50;;;;;;;27.17;17.88;;;14.50;75.30;;;;;;5057426;28;20049;-87
2022/04/22 10:06:18;;;;;;;25.40;15.82;;;14.50;73.60;;;;;;5072846;28;20033;-85
2022/04/22 10:08:46;;;;;;;28.17;18.38;;;14.60;71.60;;;;;;5066744;28;20033;-86
2022/04/22 10:11:15;;;;;;;25.83;17.40;;;14.70;73.40;;;;;;5044811;28;20025;-84
2022/04/22 10:13:46;;;;;;;27.70;18.35;;;15.00;72.80;;;;;;5050195;28;20021;-88
2022/04/22 10:16:13;;;;;;;27.08;17.02;;;15.30;73.00;;;;;;5041232;28;20021;-86
2022/04/22 10:18:39;;;;;;;28.15;17.83;;;15.40;78.10;;;;;;5049583;28;20074;-87
2022/04/22 10:21:06;;;;;;;27.77;17.80;;;15.30;72.50;;;;;;5061926;28;20147;-87
2022/04/22 10:23:32;;;;;;;27.98;17.85;;;15.40;69.90;;;;;;5060982;28;20499;-86
2022/04/22 10:25:59;;;;;;;25.77;17.13;;;14.60;71.10;;;;;;5063301;28;20089;-88
2022/04/22 10:28:27;;;;;;;26.05;15.48;;;14.60;70.80;;;;;;5072684;28;20089;-85
2022/04/22 10:30:54;;;;;;;25.63;16.63;;;15.00;72.40;;;;;;5065711;28;20036;-84
2022/04/22 10:33:43;;;;;;;26.98;16.98;;;14.90;70.30;;;;;;5048918;28;20049;-85
2022/04/22 10:36:13;;;;;;;27.63;15.75;;;15.30;66.60;;;;;;5050561;28;20024;-85
2022/04/22 10:38:41;;;;;;;25.98;16.35;;;15.60;68.80;;;;;;5050041;28;20172;-85
2022/04/22 10:41:17;;;;;;;24.35;15.85;;;15.60;67.10;;;;;;5046464;28;20557;-85
2022/04/22 10:47:13;;;;;;;24.40;16.05;;;16.00;64.60;;;;;;5026599;28;20039;-84
2022/04/22 10:49:16;;;;;;;24.55;15.85;;;15.90;61.50;;;;;;5055256;28;20117;-85
2022/04/22 10:52:03;;;;;;;27.80;17.13;;;15.60;61.30;;;;;;5075688;28;20499;-85
2022/04/22 10:54:54;;;;;;;25.92;16.55;;;15.70;65.10;;;;;;5054402;28;20025;-86
2022/04/22 10:57:20;;;;;;;24.45;16.90;;;16.10;60.20;;;;;;5056275;28;20552;-85
2022/04/22 11:00:01;;;;;;;22.42;17.45;;;16.50;58.40;;;;;;5061808;28;20127;-86
2022/04/22 11:02:31;;;;;;;24.38;17.90;;;16.50;56.80;;;;;;5074896;28;20029;-87
2022/04/22 11:05:32;;;;;;;22.00;16.13;;;16.90;57.20;;;;;;5044181;28;20053;-86
2022/04/22 11:07:58;;;;;;;22.48;16.15;;;16.80;58.70;;;;;;5027400;28;20489;-87
2022/04/22 11:10:29;;;;;;;27.08;17.50;;;17.10;55.40;;;;;;5047763;28;20047;-86
2022/04/22 11:13:00;;;;;;;22.48;16.90;;;17.30;53.90;;;;;;5050664;28;20024;-88
2022/04/22 11:15:43;;;;;;;;;;;17.50;54.40;;;;;;5055921;28;20033;-87
2022/04/22 11:18:09;;;;;;;26.63;16.65;;;18.30;52.30;;;;;;5050323;28;19915;-85
2022/04/22 11:20:44;;;;;;;25.35;17.00;;;18.60;48.70;;;;;;5046777;28;20033;-86
2022/04/22 11:23:14;;;;;;;22.55;15.38;;;18.80;49.10;;;;;;5058067;28;20488;-86
2022/04/22 11:25:41;;;;;;;24.10;16.50;;;18.10;48.60;;;;;;5058082;28;20055;-86
2022/04/22 11:28:10;;;;;;;22.35;17.25;;;18.00;48.00;;;;;;5061657;28;20278;-85
2022/04/22 11:30:36;;;;;;;23.08;15.95;;;18.20;48.70;;;;;;5053877;28;20028;-85
2022/04/22 11:33:23;;;;;;;23.42;16.17;;;18.20;47.70;;;;;;5047714;28;20041;-84
2022/04/22 11:35:52;;;;;;;23.38;15.82;;;18.70;47.90;;;;;;5047802;28;20028;-84
2022/04/22 11:38:17;;;;;;;23.05;17.52;;;18.40;48.40;;;;;;5053415;28;20029;-85
2022/04/22 11:40:44;;;;;;;27.88;17.95;;;18.60;52.10;;;;;;5054806;28;20540;-85
2022/04/22 11:43:12;;;;;;;22.08;16.88;;;18.60;48.50;;;;;;5038581;28;20020;-86
2022/04/22 11:45:48;;;;;;;23.92;17.08;;;18.10;50.50;;;;;;5056987;28;20123;-85
2022/04/22 11:48:18;;;;;;;20.58;16.15;;;18.10;51.20;;;;;;5072532;28;20399;-83
2022/04/22 11:50:46;;;;;;;22.10;17.63;;;18.60;47.50;;;;;;5073071;28;20040;-86
2022/04/22 11:53:18;;;;;;;21.33;18.15;;;19.20;45.90;;;;;;5037408;28;20037;-85
2022/04/22 11:55:45;;;;;;;22.20;16.80;;;19.00;45.80;;;;;;5067956;28;20035;-85
2022/04/22 11:58:12;;;;;;;20.75;16.23;;;19.60;45.60;;;;;;5050577;28;20028;-85
2022/04/22 12:06:13;;;;;;;18.23;14.93;;;21.10;40.50;;;;;;5051685;28;20050;-86
2022/04/22 12:08:50;;;;;;;21.50;16.25;;;21.60;38.70;;;;;;5048633;28;20028;-86
2022/04/22 12:11:18;;;;;;;21.88;16.08;;;21.90;38.80;;;;;;5066795;28;20167;-84
2022/04/22 12:13:48;;;;;;;20.63;14.02;;;21.80;40.00;;;;;;5037080;28;20029;-85
2022/04/22 12:16:18;;;;;;;16.00;14.32;;;21.70;37.60;;;;;;5048827;28;20553;-85
2022/04/22 12:18:48;;;;;;;17.75;14.57;;;21.10;37.60;;;;;;5075011;28;20472;-86
2022/04/22 12:21:15;;;;;;;16.85;12.88;;;21.00;39.50;;;;;;5077771;28;20029;-85
2022/04/22 12:23:43;;;;;;;19.40;15.18;;;20.50;37.50;;;;;;5057332;28;20060;-87
2022/04/22 12:26:26;;;;;;;25.17;15.85;;;20.70;41.70;;;;;;5039293;28;20379;-86
2022/04/22 12:29:22;;;;;;;19.27;14.35;;;21.50;39.10;;;;;;5052766;28;20032;-87
2022/04/22 12:31:50;;;;;;;19.13;15.55;;;21.20;37.50;;;;;;5046220;28;20264;-86
2022/04/22 12:34:31;;;;;;;17.83;15.60;;;19.30;42.20;;;;;;5054357;28;20135;-84
2022/04/22 12:36:59;;;;;;;19.50;15.13;;;19.90;41.70;;;;;;5050386;28;20029;-86
2022/04/22 12:40:06;;;;;;;18.98;14.73;;;21.50;40.20;;;;;;5043389;28;20040;-85
2022/04/22 12:42:33;;;;;;;19.88;16.08;;;22.10;37.60;;;;;;5053006;28;20055;-89
2022/04/22 12:53:38;;;;;;;17.95;14.82;;;21.90;37.50;;;;;;5052299;28;20047;-87
2022/04/22 12:56:05;;;;;;;20.55;14.10;;;21.20;37.30;;;;;;5065746;28;20346;-85
2022/04/22 12:58:32;;;;;;;18.30;12.80;;;21.50;39.00;;;;;;5055611;28;20032;-84
2022/04/22 13:00:59;;;;;;;13.82;11.25;;;21.80;37.30;;;;;;5050301;28;20515;-84
2022/04/22 13:03:45;;;;;;;13.70;10.25;;;22.60;36.10;;;;;;5036868;28;20060;-86
2022/04/22 13:06:10;;;;;;;15.55;10.82;;;22.00;34.10;;;;;;5049350;28;20044;-84
2022/04/22 13:08:36;;;;;;;15.82;12.30;;;21.50;35.40;;;;;;5042197;28;20471;-85
2022/04/22 13:11:02;;;;;;;16.08;12.23;;;21.90;35.20;;;;;;5046529;28;20029;-84
2022/04/22 13:13:27;;;;;;;15.82;10.77;;;22.00;36.30;;;;;;5050191;28;20472;-86
2022/04/22 13:15:54;;;;;;;16.20;11.02;;;23.50;32.80;;;;;;5050895;28;20467;-84
2022/04/22 13:18:20;;;;;;;12.45;10.57;;;23.80;31.90;;;;;;5071517;28;20721;-86
2022/04/22 13:20:46;;;;;;;13.88;10.88;;;24.90;32.00;;;;;;5061858;28;20079;-85
2022/04/22 13:23:12;;;;;;;15.15;12.07;;;24.70;29.10;;;;;;5058734;28;20103;-84
2022/04/22 13:25:37;;;;;;;15.07;11.55;;;24.50;30.80;;;;;;5055634;28;20024;-85
2022/04/22 13:28:04;;;;;;;15.35;12.20;;;24.60;29.90;;;;;;5056751;28;20549;-85
2022/04/22 13:30:29;;;;;;;13.98;12.02;;;22.90;32.30;;;;;;5043186;28;20033;-83
2022/04/22 13:32:55;;;;;;;13.32;10.98;;;23.30;33.00;;;;;;5067703;28;20084;-84
2022/04/22 13:35:20;;;;;;;16.00;11.82;;;23.50;33.20;;;;;;5060858;28;20038;-85
2022/04/22 13:37:46;;;;;;;14.05;12.05;;;24.40;30.30;;;;;;5046030;28;20060;-85
2022/04/22 13:40:12;;;;;;;16.20;12.25;;;23.70;31.80;;;;;;5048053;28;20108;-83
2022/04/22 13:42:38;;;;;;;14.48;12.25;;;23.70;32.80;;;;;;5047411;28;20028;-84
2022/04/22 13:53:17;;;;;;;13.05;10.40;;;25.20;29.10;;;;;;5059809;28;20288;-84
2022/04/22 13:55:43;;;;;;;12.25;10.50;;;26.00;28.80;;;;;;5054690;28;20120;-86